»·PEaware :: N54102 KSAC-KMCC

N54102 :: KSAC-KMCC

FLIGHT INFORMATION

Flight Status: Arrived
Operator: Privately registered:
United States
More flights under this callsign
Pilot: Chris B. (23589)
Aircraft: CESSNA 172 SKYHAWK
(C172)
More flights by this aircraft type
Origin: KSAC Sacramento Executive
United States
Destination: KMCC McClellan
United States
More flights between these airports :: More routes between these airports
Route: SAC
File this flight plan on PilotEdge
Remarks:
Altitude:
(Current/Filed)
3,000ft
Speed:
(Current/Filed)
110kts
Departed: 31-Oct-20 05:39 PM
Arrived: 31-Oct-20 06:40 PM
Distance/Time
Traveled:
10nm/1:01
Distance/Time
To Go:
Arrived

Flight Plot

Page will automatically refresh every two minutes.

Flight plan parsing failed; only flown route is shown


Map Options




Map Legend


Flown Route
Filed Route
Departure Airport
Arrival Airport
Navaid (VOR, NDB)
Fix

Horizontal Profiles

Position Reports

Time Latitude Longitude Heading Altitude Ground
Speed
31-Oct-20 17:22 38.513859 -121.497530 214 20ft 0kts
31-Oct-20 17:23 38.513859 -121.497530 214 20ft 0kts
31-Oct-20 17:24 38.513859 -121.497530 214 20ft 0kts
31-Oct-20 17:25 38.513859 -121.497530 214 20ft 0kts
31-Oct-20 17:26 38.513859 -121.497530 214 20ft 0kts
31-Oct-20 17:27 38.513859 -121.497530 214 20ft 0kts
31-Oct-20 17:28 38.513859 -121.497530 214 20ft 0kts
31-Oct-20 17:29 38.513859 -121.497530 214 20ft 0kts
31-Oct-20 17:30 38.513859 -121.497530 214 20ft 0kts
31-Oct-20 17:31 38.513040 -121.495882 212 20ft 5kts
31-Oct-20 17:32 38.510196 -121.498250 213 20ft 11kts
31-Oct-20 17:33 38.506577 -121.501183 184 17ft 12kts
31-Oct-20 17:34 38.506272 -121.501125 164 17ft 0kts
31-Oct-20 17:35 38.506272 -121.501125 164 17ft 0kts
31-Oct-20 17:36 38.506272 -121.501125 164 17ft 0kts
31-Oct-20 17:37 38.506272 -121.501125 164 17ft 0kts
31-Oct-20 17:39 38.506950 -121.499273 33 17ft 51kts
31-Oct-20 17:40 38.525199 -121.491964 350 786ft 74kts
31-Oct-20 17:41 38.545616 -121.495382 351 1619ft 73kts
31-Oct-20 17:42 38.545852 -121.515860 229 2323ft 92kts
31-Oct-20 17:43 38.523846 -121.532227 190 3003ft 95kts
31-Oct-20 17:44 38.492657 -121.539063 191 3050ft 123kts
31-Oct-20 17:45 38.457950 -121.546650 185 3088ft 127kts
31-Oct-20 17:46 38.454387 -121.522158 18 3070ft 103kts
31-Oct-20 17:47 38.468150 -121.492238 84 3009ft 116kts
31-Oct-20 17:48 38.462643 -121.450845 96 3024ft 119kts
31-Oct-20 17:49 38.460110 -121.409540 73 3030ft 113kts
31-Oct-20 17:50 38.466680 -121.369726 73 3018ft 115kts
31-Oct-20 17:51 38.487754 -121.357132 340 2458ft 99kts
31-Oct-20 17:52 38.510888 -121.368877 351 2264ft 83kts
31-Oct-20 17:53 38.532640 -121.374987 345 2291ft 83kts
31-Oct-20 17:53 38.552100 -121.378778 355 2282ft 86kts
31-Oct-20 17:55 38.579839 -121.384452 349 2028ft 87kts
31-Oct-20 17:55 38.599793 -121.389429 347 1401ft 90kts
31-Oct-20 17:57 38.628174 -121.395635 350 621ft 88kts
31-Oct-20 17:57 38.647471 -121.400352 344 589ft 85kts
31-Oct-20 17:59 38.672529 -121.402915 353 1551ft 78kts
31-Oct-20 17:59 38.690697 -121.403048 0 2126ft 84kts
31-Oct-20 18:00 38.715613 -121.404161 359 2292ft 101kts
31-Oct-20 18:01 38.744858 -121.401335 6 2253ft 108kts
31-Oct-20 18:02 38.774969 -121.400077 359 2222ft 107kts
31-Oct-20 18:03 38.802411 -121.390103 31 2264ft 106kts
31-Oct-20 18:04 38.828092 -121.379288 310 2256ft 110kts
31-Oct-20 18:05 38.806016 -121.396454 181 2316ft 126kts
31-Oct-20 18:06 38.774652 -121.392537 103 2287ft 102kts
31-Oct-20 18:07 38.794586 -121.383982 0 2271ft 91kts
31-Oct-20 18:08 38.817301 -121.392134 278 2260ft 101kts
31-Oct-20 18:09 38.791781 -121.405046 186 2302ft 111kts
31-Oct-20 18:10 38.768641 -121.392344 62 2257ft 99kts
31-Oct-20 18:11 38.791983 -121.386538 357 2310ft 90kts
31-Oct-20 18:12 38.813411 -121.398208 271 2307ft 101kts
31-Oct-20 18:13 38.786608 -121.400811 167 2240ft 115kts
31-Oct-20 18:14 38.755234 -121.403838 199 2240ft 114kts
31-Oct-20 18:15 38.726720 -121.417583 204 2881ft 106kts
31-Oct-20 18:16 38.697019 -121.430498 202 3080ft 122kts
31-Oct-20 18:17 38.666176 -121.445514 199 3041ft 110kts
31-Oct-20 18:18 38.637086 -121.459443 206 3014ft 112kts
31-Oct-20 18:19 38.610444 -121.474869 200 3661ft 93kts
31-Oct-20 18:20 38.584675 -121.486870 200 4091ft 114kts
31-Oct-20 18:21 38.553359 -121.500710 199 4077ft 122kts
31-Oct-20 18:22 38.521103 -121.513187 196 3553ft 123kts
31-Oct-20 18:23 38.489862 -121.529890 205 3032ft 118kts
31-Oct-20 18:24 38.460729 -121.546986 202 3048ft 112kts
31-Oct-20 18:25 38.448107 -121.525770 68 3017ft 97kts
31-Oct-20 18:26 38.452067 -121.491794 77 3071ft 94kts
31-Oct-20 18:27 38.455099 -121.457403 75 3041ft 98kts
31-Oct-20 18:28 38.459763 -121.422889 71 3022ft 97kts
31-Oct-20 18:29 38.465212 -121.388864 74 3021ft 97kts
31-Oct-20 18:30 38.476666 -121.363962 0 3022ft 92kts
31-Oct-20 18:31 38.501289 -121.368987 355 2417ft 88kts
31-Oct-20 18:32 38.523981 -121.371938 350 2288ft 80kts
31-Oct-20 18:33 38.547787 -121.377271 353 2250ft 90kts
31-Oct-20 18:34 38.572210 -121.382031 352 1811ft 91kts
31-Oct-20 18:35 38.597061 -121.387731 342 1164ft 91kts
31-Oct-20 18:36 38.621928 -121.393676 346 532ft 90kts
31-Oct-20 18:37 38.646311 -121.400357 351 178ft 88kts
31-Oct-20 18:38 38.664258 -121.400621 359 69ft 41kts
31-Oct-20 18:39 38.667234 -121.399507 117 70ft 0kts
31-Oct-20 18:40 38.665191 -121.397548 176 72ft 0kts

Navigation Log

Ident Type
Flight plan parsing failed, navigation log unavailable